createdAt,value
2018-05-25T00:00:12.816Z,44.3
2018-05-25T00:01:22.299Z,44.85
2018-05-25T00:02:32.320Z,44.95
2018-05-25T00:03:41.793Z,45.43
2018-05-25T00:04:51.540Z,45.81
2018-05-25T00:06:01.563Z,46.48
2018-05-25T00:07:11.040Z,46.58
2018-05-25T00:08:20.784Z,46.19
2018-05-25T00:09:30.528Z,46.67
2018-05-25T00:10:40.596Z,46.75
2018-05-25T00:11:50.360Z,46.75
2018-05-25T00:13:00.371Z,46.75
2018-05-25T00:14:10.117Z,46.36
2018-05-25T00:15:20.157Z,46.75
2018-05-25T00:16:29.635Z,46.77
2018-05-25T00:17:39.380Z,46.65
2018-05-25T00:18:49.124Z,46.17
2018-05-25T00:19:59.142Z,46.1
2018-05-25T00:21:09.157Z,46.19
2018-05-25T00:22:18.905Z,47.44
2018-05-25T00:23:28.380Z,48.21
2018-05-25T00:24:38.395Z,47.89
2018-05-25T00:25:48.191Z,48.18
2018-05-25T00:26:58.208Z,48.18
2018-05-25T00:28:07.950Z,48.09
2018-05-25T00:29:17.963Z,49.24
2018-05-25T00:30:27.972Z,49.71
2018-05-25T00:31:37.986Z,50.2
2018-05-25T00:32:48.003Z,50.65
2018-05-25T00:33:58.013Z,51.7
2018-05-25T00:35:07.491Z,52.56
2018-05-25T00:36:17.029Z,52.47
2018-05-25T00:37:27.049Z,52.44
2018-05-25T00:38:36.790Z,52.63
2018-05-25T00:39:46.801Z,52.73
2018-05-25T00:40:56.277Z,52.83
2018-05-25T00:42:06.024Z,53.49
2018-05-25T00:43:16.032Z,53.59
2018-05-25T00:44:26.054Z,53.49
2018-05-25T00:45:35.534Z,53.49
2018-05-25T00:46:45.014Z,53.47
2018-05-25T00:47:55.051Z,53.37
2018-05-25T00:49:04.265Z,53.37
2018-05-25T00:50:14.008Z,53.47
2018-05-25T00:51:23.518Z,53.66
2018-05-25T00:52:33.276Z,53.37
2018-05-25T00:53:43.286Z,53.66
2018-05-25T00:54:53.299Z,52.8
2018-05-25T00:56:03.318Z,53.47
2018-05-25T00:57:13.338Z,53.47
2018-05-25T00:58:23.353Z,52.7
2018-05-25T00:59:33.406Z,53.37
2018-05-25T01:00:43.420Z,53.47
2018-05-25T01:01:53.188Z,52.8
2018-05-25T01:03:03.194Z,52.96
2018-05-25T01:04:12.673Z,52.22
2018-05-25T01:05:22.159Z,52.87
2018-05-25T01:06:32.171Z,52.29
2018-05-25T01:07:41.649Z,52.39
2018-05-25T01:08:51.388Z,52.39
2018-05-25T01:10:01.423Z,53.08
2018-05-25T01:11:11.515Z,53.08
2018-05-25T01:12:21.541Z,54.3
2018-05-25T01:13:31.557Z,54.49
2018-05-25T01:14:41.347Z,53.16
2018-05-25T01:15:51.368Z,53.73
2018-05-25T01:17:01.382Z,54.11
2018-05-25T01:18:11.129Z,54.11
2018-05-25T01:19:21.153Z,53.63
2018-05-25T01:20:31.167Z,53.44
2018-05-25T01:21:40.913Z,52.77
2018-05-25T01:22:50.656Z,52.39
2018-05-25T01:24:00.680Z,52.99
2018-05-25T01:25:10.427Z,53.28
2018-05-25T01:26:20.441Z,52.61
2018-05-25T01:27:30.458Z,53.56
2018-05-25T01:28:40.485Z,53.47
2018-05-25T01:29:50.493Z,55.19
2018-05-25T01:31:00.500Z,54.88
2018-05-25T01:32:10.250Z,54.61
2018-05-25T01:33:20.267Z,54.43
2018-05-25T01:34:30.285Z,54.11
2018-05-25T01:35:40.298Z,54.23
2018-05-25T01:36:50.044Z,53.47
2018-05-25T01:38:00.055Z,54.52
2018-05-25T01:39:09.535Z,54.43
2018-05-25T01:40:19.286Z,54.8
2018-05-25T01:41:29.033Z,54.68
2018-05-25T01:42:38.788Z,54.71
2018-05-25T01:43:48.804Z,54.49
2018-05-25T01:44:58.547Z,53.63
2018-05-25T01:46:08.565Z,53.47
2018-05-25T01:47:18.048Z,53.66
2018-05-25T01:48:28.056Z,54.39
2018-05-25T01:49:38.062Z,54.59
2018-05-25T01:50:47.804Z,54.78
2018-05-25T01:51:57.545Z,55.07
2018-05-25T01:53:07.286Z,55.35
2018-05-25T01:54:17.023Z,55.54
2018-05-25T01:55:27.074Z,55.64
2018-05-25T01:56:37.105Z,54.3
2018-05-25T01:57:47.112Z,55.74
2018-05-25T01:58:57.133Z,55.74
2018-05-25T02:00:07.144Z,55.16
2018-05-25T02:01:17.167Z,54.88
2018-05-25T02:02:27.179Z,55.45
2018-05-25T02:03:37.191Z,55.83
2018-05-25T02:04:46.935Z,56.12
2018-05-25T02:05:56.946Z,56.5
2018-05-25T02:07:06.163Z,56.4
2018-05-25T02:08:16.175Z,55.54
2018-05-25T02:09:26.187Z,54.97
2018-05-25T02:10:35.927Z,54.68
2018-05-25T02:11:45.136Z,54.21
2018-05-25T02:12:54.348Z,54.39
2018-05-25T02:14:04.368Z,54.39
2018-05-25T02:15:14.384Z,54.02
2018-05-25T02:16:24.399Z,54.11
2018-05-25T02:17:34.409Z,54.21
2018-05-25T02:18:44.151Z,54.21
2018-05-25T02:19:53.630Z,54.39
2018-05-25T02:21:03.410Z,54.78
2018-05-25T02:22:12.883Z,55.26
2018-05-25T02:23:22.894Z,55.83
2018-05-25T02:24:32.636Z,56.12
2018-05-25T02:25:42.649Z,56.28
2018-05-25T02:26:52.705Z,57.43
2018-05-25T02:28:02.178Z,57.62
2018-05-25T02:29:11.658Z,57.53
2018-05-25T02:30:21.663Z,56.85
2018-05-25T02:31:31.678Z,57.71
2018-05-25T02:32:41.425Z,57.9
2018-05-25T02:33:51.443Z,58.48
2018-05-25T02:35:00.920Z,57.9
2018-05-25T02:36:10.939Z,57.9
2018-05-25T02:37:20.419Z,57.81
2018-05-25T02:38:30.515Z,57.81
2018-05-25T02:39:40.711Z,57.81
2018-05-25T02:40:50.727Z,57.81
2018-05-25T02:42:00.479Z,57.9
2018-05-25T02:43:09.971Z,57.71
2018-05-25T02:44:19.997Z,58.38
2018-05-25T02:45:30.034Z,58.48
2018-05-25T02:46:40.052Z,58
2018-05-25T02:47:49.799Z,58.38
2018-05-25T02:48:59.810Z,58.76
2018-05-25T02:50:08.757Z,58.38
2018-05-25T02:51:18.511Z,58.38
2018-05-25T02:52:28.061Z,58
2018-05-25T02:53:37.812Z,58.76
2018-05-25T02:54:47.559Z,57.9
2018-05-25T02:55:57.567Z,58.48
2018-05-25T02:57:07.312Z,58.1
2018-05-25T02:58:17.129Z,58.48
2018-05-25T02:59:26.609Z,58.58
2018-05-25T03:03:23.873Z,58.67
2018-05-25T03:04:33.888Z,58.76
2018-05-25T03:05:43.636Z,58.67
2018-05-25T03:06:53.389Z,58.19
2018-05-25T03:08:03.418Z,59.37
2018-05-25T03:09:12.909Z,58.95
2018-05-25T03:10:22.120Z,59.66
2018-05-25T03:11:31.875Z,59.08
2018-05-25T03:12:41.893Z,58.86
2018-05-25T03:13:51.916Z,58.76
2018-05-25T03:15:01.664Z,58.48
2018-05-25T03:16:11.418Z,58.67
2018-05-25T03:17:20.893Z,58.48
2018-05-25T03:18:30.908Z,58.58
2018-05-25T03:19:40.670Z,58.86
2018-05-25T03:20:50.469Z,59.24
2018-05-25T03:22:00.483Z,59.15
2018-05-25T03:23:10.503Z,59.44
2018-05-25T03:24:20.518Z,59.24
2018-05-25T03:25:30.529Z,59.05
2018-05-25T03:26:40.544Z,58.67
2018-05-25T03:27:50.300Z,58.58
2018-05-25T03:29:00.050Z,59.24
2018-05-25T03:30:09.527Z,59.18
2018-05-25T03:31:19.558Z,58.95
2018-05-25T03:32:29.312Z,58.48
2018-05-25T03:33:39.327Z,59.27
2018-05-25T03:34:49.341Z,59.08
2018-05-25T03:35:59.082Z,59.47
2018-05-25T03:37:08.564Z,58.7
2018-05-25T03:38:17.506Z,59.08
2018-05-25T03:39:27.514Z,58.8
2018-05-25T03:40:37.523Z,58.22
2018-05-25T03:41:47.279Z,58.41
2018-05-25T03:42:57.289Z,59.08
2018-05-25T03:44:07.035Z,58.8
2018-05-25T03:45:17.047Z,59.37
2018-05-25T03:46:27.055Z,60.23
2018-05-25T03:47:36.797Z,60.13
2018-05-25T03:48:46.810Z,60.52
2018-05-25T03:49:56.554Z,59.56
2018-05-25T03:51:06.297Z,60.8
2018-05-25T03:52:16.314Z,60.8
2018-05-25T03:53:25.793Z,61.76
2018-05-25T03:54:35.544Z,61.38
2018-05-25T03:55:45.561Z,61.28
2018-05-25T03:56:55.576Z,60.71
2018-05-25T03:58:05.317Z,60.61
2018-05-25T03:59:14.809Z,60.9
2018-05-25T04:00:24.827Z,60.52
2018-05-25T04:01:34.938Z,60.23
2018-05-25T04:02:45.121Z,60.42
2018-05-25T04:03:54.879Z,60.52
2018-05-25T04:05:04.969Z,60.33
2018-05-25T04:06:14.988Z,60.61
2018-05-25T04:07:25.004Z,60.8
2018-05-25T04:08:35.016Z,60.71
2018-05-25T04:09:45.028Z,60.61
2018-05-25T04:10:55.038Z,60.04
2018-05-25T04:12:04.246Z,60.52
2018-05-25T04:13:13.990Z,60.74
2018-05-25T04:14:24.036Z,60.35
2018-05-25T04:15:33.524Z,60.9
2018-05-25T04:16:43.270Z,61.22
2018-05-25T04:17:53.020Z,61.22
2018-05-25T04:19:02.769Z,61.22
2018-05-25T04:20:12.513Z,61.88
2018-05-25T04:21:22.534Z,62.08
2018-05-25T04:22:32.285Z,62.27
2018-05-25T04:23:42.029Z,61.98
2018-05-25T04:24:51.824Z,62.08
2018-05-25T04:26:01.302Z,62.27
2018-05-25T04:27:10.781Z,62.37
2018-05-25T04:28:20.812Z,62.94
2018-05-25T04:29:30.825Z,62.74
2018-05-25T04:30:40.838Z,62.08
2018-05-25T04:31:50.853Z,61.98
2018-05-25T04:33:00.869Z,62.08
2018-05-25T04:34:10.883Z,61.98
2018-05-25T04:35:20.896Z,61.98
2018-05-25T04:36:30.642Z,62.08
2018-05-25T04:37:40.655Z,62.74
2018-05-25T04:38:50.400Z,62.17
2018-05-25T04:40:00.455Z,62.84
2018-05-25T04:41:10.485Z,62.27
2018-05-25T04:42:20.230Z,61.88
2018-05-25T04:43:29.714Z,62.01
2018-05-25T04:44:39.197Z,62.37
2018-05-25T04:45:48.953Z,62.11
2018-05-25T04:46:58.434Z,61.91
2018-05-25T04:48:07.910Z,62.01
2018-05-25T04:49:17.654Z,61.15
2018-05-25T04:50:27.670Z,60.96
2018-05-25T04:51:37.447Z,61.34
2018-05-25T04:52:46.926Z,61.15
2018-05-25T04:53:56.403Z,61.54
2018-05-25T04:55:06.436Z,60.96
2018-05-25T04:56:16.449Z,60.19
2018-05-25T04:57:26.201Z,60.29
2018-05-25T04:58:35.955Z,60.48
2018-05-25T04:59:45.693Z,60.38
2018-05-25T05:00:55.169Z,60.19
2018-05-25T05:02:04.914Z,59.72
2018-05-25T05:03:14.949Z,60.77
2018-05-25T05:04:24.706Z,60.48
2018-05-25T05:05:34.193Z,60
2018-05-25T05:06:44.240Z,59.81
2018-05-25T05:07:53.717Z,60.67
2018-05-25T05:09:03.462Z,60.67
2018-05-25T05:10:13.475Z,60.86
2018-05-25T05:11:23.221Z,60.8
2018-05-25T05:12:32.980Z,60.8
2018-05-25T05:13:42.456Z,59.45
2018-05-25T05:14:51.702Z,60.03
2018-05-25T05:16:01.822Z,60.7
2018-05-25T05:17:11.578Z,60.99
2018-05-25T05:18:21.594Z,61.18
2018-05-25T05:19:31.634Z,59.94
2018-05-25T05:20:41.660Z,59.27
2018-05-25T05:21:51.679Z,60.22
2018-05-25T05:23:01.814Z,59.75
2018-05-25T05:24:11.662Z,59.84
2018-05-25T05:25:21.406Z,60.8
2018-05-25T05:26:31.182Z,60.89
2018-05-25T05:27:40.685Z,60.61
2018-05-25T05:28:50.166Z,60.7
2018-05-25T05:29:59.917Z,60.32
2018-05-25T05:31:09.398Z,60.61
2018-05-25T05:32:19.147Z,60.51
2018-05-25T05:33:29.167Z,60.99
2018-05-25T05:34:39.311Z,60.13
2018-05-25T05:35:48.794Z,60.61
2018-05-25T05:36:58.822Z,60.41
2018-05-25T05:38:08.838Z,60.32
2018-05-25T05:39:18.326Z,60.51
2018-05-25T05:40:28.116Z,59.55
2018-05-25T05:41:37.868Z,58.88
2018-05-25T05:42:47.924Z,58.98
2018-05-25T05:43:57.941Z,59.11
2018-05-25T05:45:07.685Z,59.45
2018-05-25T05:46:17.719Z,58.4
2018-05-25T05:47:27.739Z,58.88
2018-05-25T05:48:37.750Z,58.62
2018-05-25T05:49:47.495Z,57.95
2018-05-25T05:50:57.638Z,58.44
2018-05-25T05:52:07.513Z,58.72
2018-05-25T05:53:17.535Z,57.95
2018-05-25T05:54:27.285Z,57.86
2018-05-25T05:55:37.031Z,57.67
2018-05-25T05:56:47.048Z,57.76
2018-05-25T05:57:56.794Z,57.57
2018-05-25T05:59:06.802Z,57.67
2018-05-25T06:00:16.837Z,57.38
2018-05-25T06:01:26.591Z,57.28
2018-05-25T06:02:36.338Z,57.28
2018-05-25T06:03:45.819Z,57.86
2018-05-25T06:04:55.831Z,57.95
2018-05-25T06:06:05.584Z,57.48
2018-05-25T06:07:15.336Z,57.28
2018-05-25T06:08:24.820Z,57.09
2018-05-25T06:09:34.837Z,56.32
2018-05-25T06:10:44.857Z,55.94
2018-05-25T06:11:54.877Z,57.28
2018-05-25T06:13:04.364Z,57.38
2018-05-25T06:14:14.380Z,56.81
2018-05-25T06:15:24.125Z,57.19
2018-05-25T06:16:33.607Z,57.28
2018-05-25T06:17:43.363Z,56.99
2018-05-25T06:18:53.116Z,57.48
2018-05-25T06:20:02.636Z,56.23
2018-05-25T06:21:12.487Z,57.09
2018-05-25T06:22:21.977Z,57.38
2018-05-25T06:23:32.003Z,57.19
2018-05-25T06:24:41.493Z,57.38
2018-05-25T06:25:51.247Z,57.57
2018-05-25T06:27:00.836Z,56.71
2018-05-25T06:28:10.583Z,55.94
2018-05-25T06:29:20.608Z,56.32
2018-05-25T06:30:30.627Z,57.41
2018-05-25T06:31:40.109Z,55.78
2018-05-25T06:32:49.909Z,56.45
2018-05-25T06:33:59.931Z,55.49
2018-05-25T06:35:09.966Z,55.21
2018-05-25T06:36:19.718Z,54.53
2018-05-25T06:37:29.469Z,54.44
2018-05-25T06:38:39.215Z,54.72
2018-05-25T06:39:48.979Z,53.58
2018-05-25T06:40:58.993Z,53.96
2018-05-25T06:42:08.479Z,54.53
2018-05-25T06:43:18.228Z,54.85
2018-05-25T06:44:28.458Z,54.44
2018-05-25T06:45:38.262Z,54.17
2018-05-25T06:46:48.014Z,51.97
2018-05-25T06:47:57.501Z,52.52
2018-05-25T06:49:06.993Z,51.46
2018-05-25T06:50:16.477Z,51.18
2018-05-25T06:51:26.506Z,51.87
2018-05-25T06:52:36.256Z,52.62
2018-05-25T06:53:46.034Z,53.38
2018-05-25T06:54:55.529Z,54.56
2018-05-25T06:56:05.298Z,54.46
2018-05-25T06:57:15.318Z,54.94
2018-05-25T06:58:25.065Z,53.79
2018-05-25T06:59:35.083Z,53.12
2018-05-25T07:00:44.570Z,54.37
2018-05-25T07:01:54.586Z,53.7
2018-05-25T07:03:04.613Z,54.46
2018-05-25T07:04:14.635Z,52.74
2018-05-25T07:05:24.128Z,51.87
2018-05-25T07:06:33.892Z,53.5
2018-05-25T07:07:43.911Z,53.5
2018-05-25T07:08:53.927Z,53.03
2018-05-25T07:10:03.948Z,53.41
2018-05-25T07:11:13.699Z,53.5
2018-05-25T07:12:23.449Z,52.83
2018-05-25T07:13:33.466Z,52.86
2018-05-25T07:14:42.947Z,52.64
2018-05-25T07:15:52.963Z,51.9
2018-05-25T07:17:02.747Z,50.75
2018-05-25T07:18:12.651Z,52.09
2018-05-25T07:19:22.664Z,51.9
2018-05-25T07:20:32.146Z,51.9
2018-05-25T07:21:42.165Z,52.09
2018-05-25T07:22:51.645Z,51.61
2018-05-25T07:24:01.395Z,51.14
2018-05-25T07:25:11.420Z,50.96
2018-05-25T07:26:21.445Z,51.42
2018-05-25T07:27:31.463Z,51.23
2018-05-25T07:28:40.949Z,50.68
2018-05-25T07:29:50.706Z,51.61
2018-05-25T07:31:00.456Z,51.81
2018-05-25T07:32:09.936Z,51.83
2018-05-25T07:33:19.690Z,52.5
2018-05-25T07:34:29.239Z,52.12
2018-05-25T07:35:38.986Z,52.31
2018-05-25T07:36:49.010Z,52.6
2018-05-25T07:37:59.024Z,52.6
2018-05-25T07:39:08.778Z,51.83
2018-05-25T07:40:18.591Z,52.22
2018-05-25T07:41:28.068Z,52.12
2018-05-25T07:42:37.282Z,51.06
2018-05-25T07:43:47.034Z,51.93
2018-05-25T07:44:56.512Z,51.57
2018-05-25T07:46:05.990Z,51.54
2018-05-25T07:47:15.475Z,50.7
2018-05-25T07:48:25.490Z,50.9
2018-05-25T07:49:35.508Z,50.8
2018-05-25T07:50:45.256Z,50.13
2018-05-25T07:51:55.010Z,50.61
2018-05-25T07:53:04.249Z,50.61
2018-05-25T07:54:13.728Z,50.8
2018-05-25T07:55:23.798Z,49.74
2018-05-25T07:56:33.542Z,50.03
2018-05-25T07:57:43.027Z,50.7
2018-05-25T07:58:53.052Z,50.25
2018-05-25T08:00:02.797Z,50.63
2018-05-25T08:01:12.282Z,50.25
2018-05-25T08:02:22.049Z,50.25
2018-05-25T08:03:32.065Z,49.87
2018-05-25T08:04:41.822Z,50.15
2018-05-25T08:05:51.835Z,50.25
2018-05-25T08:07:01.858Z,49.96
2018-05-25T08:08:11.609Z,50.05
2018-05-25T08:09:21.624Z,50.34
2018-05-25T08:10:31.647Z,50.54
2018-05-25T08:11:41.671Z,50.37
2018-05-25T08:12:51.160Z,49.99
2018-05-25T08:14:01.191Z,50.08
2018-05-25T08:15:10.412Z,50.27
2018-05-25T08:16:19.899Z,49.99
2018-05-25T08:17:29.654Z,49.99
2018-05-25T08:18:39.670Z,50.18
2018-05-25T08:19:49.419Z,50.2
2018-05-25T08:20:59.171Z,49.72
2018-05-25T08:22:08.385Z,49.15
2018-05-25T08:23:18.157Z,49.72
2018-05-25T08:24:27.661Z,49.36
2018-05-25T08:25:37.678Z,49.65
2018-05-25T08:26:46.894Z,49.46
2018-05-25T08:27:56.954Z,48.88
2018-05-25T08:29:06.539Z,48.4
2018-05-25T08:30:16.385Z,48.3
2018-05-25T08:31:26.787Z,48.49
2018-05-25T08:32:36.572Z,48.3
2018-05-25T08:33:46.588Z,48.13
2018-05-25T08:34:56.366Z,47.85
2018-05-25T08:36:06.187Z,48.13
2018-05-25T08:37:15.972Z,48.23
2018-05-25T08:38:25.813Z,47.85
2018-05-25T08:39:35.885Z,47.65
2018-05-25T08:40:45.635Z,47.19
2018-05-25T08:41:55.647Z,46.98
2018-05-25T08:43:05.669Z,47
2018-05-25T08:44:15.697Z,46.52
2018-05-25T08:45:25.448Z,46.14
2018-05-25T08:46:35.198Z,45.94
2018-05-25T08:47:44.970Z,45.94
2018-05-25T08:48:54.988Z,46.33
2018-05-25T08:50:04.210Z,46.83
2018-05-25T08:51:13.970Z,46.93
2018-05-25T08:52:23.718Z,48.08
2018-05-25T08:53:33.199Z,48.18
2018-05-25T08:54:42.681Z,47.8
2018-05-25T08:55:52.440Z,47.51
2018-05-25T08:57:02.533Z,47.6
2018-05-25T08:58:12.283Z,47.03
2018-05-25T08:59:22.027Z,46.55
2018-05-25T09:00:31.780Z,46.73
2018-05-25T09:01:41.811Z,46.37
2018-05-25T09:02:51.377Z,47.05
2018-05-25T09:04:00.860Z,47.34
2018-05-25T09:05:10.614Z,47.05
2018-05-25T09:06:20.362Z,46.08
2018-05-25T09:07:30.115Z,45.51
2018-05-25T09:08:40.131Z,45.7
2018-05-25T09:09:50.161Z,45.6
2018-05-25T09:10:59.969Z,45.24
2018-05-25T09:12:09.680Z,44.27
2018-05-25T09:13:19.178Z,45.53
2018-05-25T09:14:28.932Z,45.14
2018-05-25T09:15:38.682Z,44.85
2018-05-25T09:16:48.425Z,44.2
2018-05-25T09:17:58.452Z,44.46
2018-05-25T09:19:08.475Z,44.27
2018-05-25T09:20:17.963Z,44.78
2018-05-25T09:21:27.714Z,44.2
2018-05-25T09:22:37.747Z,43.91
2018-05-25T09:23:47.229Z,43.62
2018-05-25T09:24:57.254Z,43.81
2018-05-25T09:26:07.064Z,44.2
2018-05-25T09:27:17.083Z,43.81
2018-05-25T09:28:26.844Z,44.01
2018-05-25T09:29:36.600Z,43.43
2018-05-25T09:30:46.628Z,43.43
2018-05-25T09:31:56.830Z,43.81
2018-05-25T09:33:06.047Z,43.04
2018-05-25T09:34:16.084Z,42.87
2018-05-25T09:35:25.835Z,42.97
2018-05-25T09:36:35.373Z,42.68
2018-05-25T09:37:45.409Z,42.77
2018-05-25T09:38:55.160Z,43.54
2018-05-25T09:40:04.941Z,44.22
2018-05-25T09:41:14.967Z,43.84
2018-05-25T09:42:24.983Z,43.93
2018-05-25T09:43:34.471Z,43.35
2018-05-25T09:44:43.687Z,43.64
2018-05-25T09:45:53.715Z,43.84
2018-05-25T09:47:03.464Z,42.97
2018-05-25T09:48:13.488Z,43.45
2018-05-25T09:49:23.508Z,43.45
2018-05-25T09:50:33.260Z,43.76
2018-05-25T09:51:43.022Z,43.28
2018-05-25T09:52:53.041Z,43.28
2018-05-25T09:54:03.062Z,42.31
2018-05-25T09:55:13.084Z,42.41
2018-05-25T09:56:23.107Z,42.52
2018-05-25T09:57:32.855Z,41.94
2018-05-25T09:58:42.341Z,41.66
2018-05-25T09:59:52.094Z,41.66
2018-05-25T10:01:02.116Z,41.94
2018-05-25T10:02:11.603Z,41.46
2018-05-25T10:03:21.353Z,41.39
2018-05-25T10:04:31.114Z,42.07
2018-05-25T10:05:40.915Z,41.39
2018-05-25T10:06:50.936Z,42.45
2018-05-25T10:08:00.430Z,40.71
2018-05-25T10:09:09.913Z,41.11
2018-05-25T10:10:19.930Z,40.63
2018-05-25T10:11:29.686Z,40.83
2018-05-25T10:12:39.721Z,40.05
2018-05-25T10:13:49.218Z,40.73
2018-05-25T10:14:58.971Z,41.5
2018-05-25T10:16:09.003Z,40.73
2018-05-25T10:17:18.769Z,39.95
2018-05-25T10:18:28.794Z,40.73
2018-05-25T10:19:38.547Z,39.59
2018-05-25T10:20:48.061Z,39.59
2018-05-25T10:21:57.550Z,38.43
2018-05-25T10:23:07.313Z,38.62
2018-05-25T10:24:17.352Z,38.71
2018-05-25T10:25:27.099Z,39.01
2018-05-25T10:26:36.851Z,38.53
2018-05-25T10:27:46.618Z,37.85
2018-05-25T10:28:55.571Z,37.36
2018-05-25T10:30:05.594Z,37.48
2018-05-25T10:31:15.360Z,38.35
2018-05-25T10:32:24.849Z,37.09
2018-05-25T10:33:34.606Z,37.77
2018-05-25T10:34:44.625Z,38.35
2018-05-25T10:35:54.377Z,38.45
2018-05-25T10:37:03.905Z,37.87
2018-05-25T10:38:13.930Z,38.35
2018-05-25T10:39:23.692Z,38.17
2018-05-25T10:40:33.442Z,37.01
2018-05-25T10:41:43.204Z,36.91
2018-05-25T10:42:52.984Z,36.52
2018-05-25T10:44:02.833Z,37.69
2018-05-25T10:45:12.863Z,38.17
2018-05-25T10:46:22.882Z,37.49
2018-05-25T10:47:32.636Z,36.16
2018-05-25T10:48:42.767Z,37.01
2018-05-25T10:49:52.903Z,36.62
2018-05-25T10:51:02.663Z,36.25
2018-05-25T10:52:12.689Z,35.77
2018-05-25T10:53:22.709Z,34.49
2018-05-25T10:54:32.730Z,35.77
2018-05-25T10:55:42.760Z,36.54
2018-05-25T10:56:52.243Z,36.06
2018-05-25T10:58:01.730Z,35.96
2018-05-25T10:59:11.750Z,35.77
2018-05-25T11:00:21.779Z,35.28
2018-05-25T11:01:30.995Z,35.59
2018-05-25T11:02:40.772Z,35.98
2018-05-25T11:03:50.870Z,34.91
2018-05-25T11:05:00.887Z,33.56
2018-05-25T11:06:10.638Z,33.65
2018-05-25T11:07:20.397Z,33.26
2018-05-25T11:08:29.887Z,34.74
2018-05-25T11:09:39.904Z,34.16
2018-05-25T11:10:49.658Z,32.99
2018-05-25T11:11:59.415Z,33.57
2018-05-25T11:13:09.178Z,33.96
2018-05-25T11:14:19.210Z,32.62
2018-05-25T11:15:28.970Z,33.49
2018-05-25T11:16:38.732Z,31.35
2018-05-25T11:17:48.753Z,32.23
2018-05-25T11:18:58.782Z,31.84
2018-05-25T11:20:08.271Z,32.04
2018-05-25T11:21:18.293Z,32.13
2018-05-25T11:22:27.779Z,31.26
2018-05-25T11:23:37.547Z,31.35
2018-05-25T11:24:47.563Z,31.45
2018-05-25T11:25:57.325Z,31.37
2018-05-25T11:27:07.251Z,30.98
2018-05-25T11:28:17.299Z,30.8
2018-05-25T11:29:26.785Z,30.33
2018-05-25T11:30:35.740Z,29.85
2018-05-25T11:31:45.777Z,29.19
2018-05-25T11:32:55.795Z,28.43
2018-05-25T11:34:05.819Z,27.68
2018-05-25T11:35:15.310Z,26.62
2018-05-25T11:36:24.794Z,26.45
2018-05-25T11:37:34.555Z,26.56
2018-05-25T11:38:44.578Z,25.12
2018-05-25T11:39:54.344Z,23.68
2018-05-25T11:41:04.112Z,23.88
2018-05-25T11:42:13.871Z,22.73
2018-05-25T11:43:23.900Z,21.76
2018-05-25T11:44:33.660Z,20.99
2018-05-25T11:45:43.696Z,21
2018-05-25T11:46:53.723Z,21.9
2018-05-25T11:48:03.773Z,20.24
2018-05-25T11:49:13.805Z,19.17
2018-05-25T11:50:23.841Z,18.39
2018-05-25T11:51:33.870Z,19.08
2018-05-25T11:52:43.899Z,19.09
2018-05-25T11:53:53.395Z,18.9
2018-05-25T11:55:03.422Z,17.73
2018-05-25T11:56:13.458Z,17.85
2018-05-25T11:57:23.221Z,17.07
2018-05-25T11:58:32.449Z,17.07
2018-05-25T11:59:41.943Z,17.17
2018-05-25T12:00:51.704Z,16.59
2018-05-25T12:02:01.197Z,16.69
2018-05-25T12:03:10.973Z,16.1
2018-05-25T12:04:20.203Z,16.02
2018-05-25T12:05:30.247Z,16.31
2018-05-25T12:06:39.564Z,14.75
2018-05-25T12:07:49.395Z,14.26
2018-05-25T12:08:59.167Z,13.46
2018-05-25T12:10:08.941Z,13.18
2018-05-25T12:11:18.979Z,13.97
2018-05-25T12:12:29.014Z,13.18
2018-05-25T12:13:39.057Z,13.89
2018-05-25T12:14:48.831Z,13.29
2018-05-25T12:15:58.597Z,12.4
2018-05-25T12:17:08.628Z,12.6
2018-05-25T12:18:18.658Z,12.6
2018-05-25T12:19:28.703Z,12.91
2018-05-25T12:20:38.477Z,12.52
2018-05-25T12:21:48.522Z,12.43
2018-05-25T12:22:58.568Z,11.93
2018-05-25T12:24:08.613Z,10.64
2018-05-25T12:25:18.392Z,12.33
2018-05-25T12:26:27.896Z,11.24
2018-05-25T12:27:37.399Z,10.35
2018-05-25T12:28:47.432Z,10.55
2018-05-25T12:29:57.462Z,10.35
2018-05-25T12:31:06.429Z,11.05
2018-05-25T12:32:16.464Z,10.25
2018-05-25T12:33:26.507Z,10.06
2018-05-25T12:34:36.008Z,9.77
2018-05-25T12:35:45.821Z,10.46
2018-05-25T12:36:55.862Z,9.96
2018-05-25T12:38:05.903Z,10.06
2018-05-25T12:39:15.684Z,9.97
2018-05-25T12:40:25.723Z,8.97
2018-05-25T12:41:35.314Z,9.77
2018-05-25T12:42:45.349Z,8.58
2018-05-25T12:43:54.850Z,9.47
2018-05-25T12:45:04.080Z,8.77
2018-05-25T12:46:13.591Z,8.97
2018-05-25T12:47:23.368Z,8.67
2018-05-25T12:48:32.868Z,9.17
2018-05-25T12:49:42.369Z,8.97
2018-05-25T12:50:52.136Z,9.27
2018-05-25T12:52:01.646Z,8.98
2018-05-25T12:53:11.423Z,8.48
2018-05-25T12:54:21.458Z,8.18
2018-05-25T12:55:30.958Z,8.48
2018-05-25T12:56:40.514Z,8.98
2018-05-25T12:57:50.781Z,9.08
2018-05-25T12:59:00.553Z,7.68
2018-05-25T13:00:10.061Z,7.89
2018-05-25T13:01:20.106Z,8.18
2018-05-25T13:02:30.145Z,7.78
2018-05-25T13:03:40.187Z,8.19
2018-05-25T13:04:49.969Z,8.29
2018-05-25T13:05:59.747Z,7.69
2018-05-25T13:07:09.255Z,7.39
2018-05-25T13:08:19.590Z,7.48
2018-05-25T13:09:29.091Z,7.89
2018-05-25T13:10:38.867Z,7.89
2018-05-25T13:11:48.368Z,6.99
2018-05-25T13:12:58.410Z,7.29
2018-05-25T13:14:08.176Z,7.29
2018-05-25T13:15:18.219Z,7.89
2018-05-25T13:16:28.257Z,6.99
2018-05-25T13:17:38.033Z,7.49
2018-05-25T13:18:48.075Z,6.79
2018-05-25T13:19:57.842Z,7.19
2018-05-25T13:21:07.078Z,7.29
2018-05-25T13:22:16.847Z,7.1
2018-05-25T13:23:26.349Z,6.99
2018-05-25T13:24:36.125Z,7.5
2018-05-25T13:25:46.163Z,7.5
2018-05-25T13:26:56.205Z,7.4
2018-05-25T13:28:05.989Z,7.01
2018-05-25T13:29:16.046Z,6.81
2018-05-25T13:30:25.827Z,6.41
2018-05-25T13:31:35.960Z,6.11
2018-05-25T13:32:45.996Z,6.51
2018-05-25T13:33:55.763Z,6.21
2018-05-25T13:35:05.537Z,6.41
2018-05-25T13:36:15.317Z,6.01
2018-05-25T13:37:24.821Z,6.5
2018-05-25T13:38:34.592Z,6.1
2018-05-25T13:39:44.637Z,6.11
2018-05-25T13:40:54.411Z,6.01
2018-05-25T13:42:04.185Z,5.9
2018-05-25T13:43:13.423Z,6.51
2018-05-25T13:44:23.464Z,5.71
2018-05-25T13:45:33.511Z,5.9
2018-05-25T13:46:43.011Z,6.4
2018-05-25T13:47:53.051Z,6.6
2018-05-25T13:49:02.821Z,6.1
2018-05-25T13:50:12.858Z,5.81
2018-05-25T13:51:22.624Z,6.51
2018-05-25T13:52:32.394Z,6.11
2018-05-25T13:53:42.432Z,5.71
2018-05-25T13:54:52.204Z,6.11
2018-05-25T13:56:02.240Z,6.21
2018-05-25T13:57:12.012Z,6.62
2018-05-25T13:58:21.522Z,5.81
2018-05-25T13:59:31.054Z,6.01
2018-05-25T14:00:41.103Z,5.91
2018-05-25T14:01:50.881Z,6.02
2018-05-25T14:03:00.923Z,5.52
2018-05-25T14:04:10.704Z,5.42
2018-05-25T14:05:20.215Z,5.73
2018-05-25T14:06:29.994Z,5.32
2018-05-25T14:07:39.516Z,5.12
2018-05-25T14:08:49.287Z,5.22
2018-05-25T14:09:59.344Z,5.33
2018-05-25T14:11:09.126Z,5.02
2018-05-25T14:12:19.208Z,5.32
2018-05-25T14:13:29.248Z,4.82
2018-05-25T14:14:39.028Z,5.32
2018-05-25T14:15:48.539Z,5.63
2018-05-25T14:16:58.309Z,4.72
2018-05-25T14:18:08.103Z,4.92
2018-05-25T14:19:17.611Z,5.32
2018-05-25T14:20:27.123Z,5.52
2018-05-25T14:21:37.160Z,5.52
2018-05-25T14:22:47.196Z,5.52
2018-05-25T14:23:56.967Z,5.32
2018-05-25T14:25:07.003Z,5.42
2018-05-25T14:26:17.064Z,5.73
2018-05-25T14:27:26.844Z,5.32
2018-05-25T14:28:36.348Z,5.22
2018-05-25T14:29:45.851Z,5.33
2018-05-25T14:30:55.355Z,4.72
2018-05-25T14:32:05.126Z,5.03
2018-05-25T14:33:15.162Z,4.22
2018-05-25T14:34:25.208Z,4.43
2018-05-25T14:35:34.978Z,4.63
2018-05-25T14:36:45.012Z,4.73
2018-05-25T14:37:54.515Z,4.33
2018-05-25T14:39:04.560Z,3.72
2018-05-25T14:40:14.344Z,4.43
2018-05-25T14:41:24.440Z,4.33
2018-05-25T14:42:34.355Z,4.33
2018-05-25T14:43:44.410Z,4.63
2018-05-25T14:44:54.470Z,4.43
2018-05-25T14:46:04.242Z,4.13
2018-05-25T14:47:13.917Z,4.22
2018-05-25T14:48:24.070Z,4.52
2018-05-25T14:49:34.106Z,3.92
2018-05-25T14:50:43.885Z,4.42
2018-05-25T14:51:53.926Z,4.12
2018-05-25T14:53:03.435Z,3.82
2018-05-25T14:54:13.480Z,4.22
2018-05-25T14:55:23.250Z,4.52
2018-05-25T14:56:32.766Z,4.63
2018-05-25T14:57:42.538Z,4.72
2018-05-25T14:58:52.579Z,4.12
2018-05-25T15:00:02.720Z,4.32
2018-05-25T15:01:12.528Z,4.32
2018-05-25T15:02:22.296Z,4.32
2018-05-25T15:03:32.067Z,3.72
2018-05-25T15:04:41.837Z,3.62
2018-05-25T15:05:51.882Z,3.62
2018-05-25T15:07:01.382Z,3.72
2018-05-25T15:08:10.632Z,3.52
2018-05-25T15:09:20.420Z,3.62